M I D A S
Marine Information and Data Acquisition System
Tripno 1522 of the Zeeleeuw from 2008-07-18 07:56:38 to 2008-07-18 15:00:26
Back to CruiseResearch ActivitiesStationsMapUnderway DataData graphs

EquipmentUnitsComment
TimeDGPSUTC
LatitudeDGPSDM.mWGS84
LongitudeDGPSDM.mWGS84
HeadingGyrodeg 
SOGDGPSknotsSpeed over ground
COGDGPSdegCourse over ground
DepthEcho soundermeters200 kHz
Missing or incorrect values are displayed as -999
Navigation data collected by the RV Zeeleeuw from 2008-07-18 08:00:17 to 2008-07-18 15:03:24
                                                                                    Next 1000 lines
Time Latitude Longitude Heading SOG COG Depth
2008-07-18 08:00:26 51°13.623 2°56.045 111 0.6 289 -999
2008-07-18 08:00:32 51°13.624 2°56.043 111 0.8 293 -999
2008-07-18 08:00:37 51°13.624 2°56.041 111 0.8 290 -999
2008-07-18 08:00:41 51°13.625 2°56.039 111.5 1.1 293 -999
2008-07-18 08:00:46 51°13.625 2°56.036 111.9 1.4 294 -999
2008-07-18 08:00:51 51°13.626 2°56.033 112.4 1.4 295 -999
2008-07-18 08:00:57 51°13.627 2°56.029 112.8 1.6 296 -999
2008-07-18 08:01:01 51°13.628 2°56.027 113.1 1.8 296 -999
2008-07-18 08:01:06 51°13.629 2°56.023 113.2 1.9 297 -999
2008-07-18 08:01:11 51°13.631 2°56.019 113.2 2 297 -999
2008-07-18 08:01:16 51°13.632 2°56.015 112.9 2.1 297 -999
2008-07-18 08:01:21 51°13.633 2°56.011 112.4 2.2 295 -999
2008-07-18 08:01:26 51°13.635 2°56.006 111.9 2.2 295 -999
2008-07-18 08:01:31 51°13.636 2°56.001 111.4 2.4 293 -999
2008-07-18 08:01:37 51°13.637 2°55.995 110.4 2.6 291 -999
2008-07-18 08:01:42 51°13.638 2°55.989 109.2 2.6 289 -999
2008-07-18 08:01:47 51°13.64 2°55.984 107.7 2.6 288 -999
2008-07-18 08:01:51 51°13.64 2°55.98 106.1 2.5 284 -999
2008-07-18 08:01:56 51°13.641 2°55.974 104.4 2.3 286 -999
2008-07-18 08:02:02 51°13.642 2°55.969 103.5 2.1 284 -999
2008-07-18 08:02:06 51°13.642 2°55.966 103.5 1.7 284 -999
2008-07-18 08:02:11 51°13.643 2°55.963 104.1 1.5 284 -999
2008-07-18 08:02:17 51°13.643 2°55.96 105.3 1.2 285 -999
2008-07-18 08:02:22 51°13.644 2°55.958 106.9 1 286 -999
2008-07-18 08:02:26 51°13.644 2°55.956 108.8 0.9 288 -999
2008-07-18 08:02:31 51°13.644 2°55.955 110.3 1 292 -999
2008-07-18 08:02:36 51°13.645 2°55.952 111.4 1.1 294 -999
2008-07-18 08:02:41 51°13.646 2°55.949 112.4 1.4 293 10.2
2008-07-18 08:02:47 51°13.647 2°55.946 113.1 1.6 296 4.7
2008-07-18 08:02:52 51°13.648 2°55.942 113.5 1.8 294 4.8
2008-07-18 08:02:56 51°13.649 2°55.939 113.8 2 296 4.7
2008-07-18 08:03:01 51°13.65 2°55.934 114 2.2 295 -999
2008-07-18 08:03:06 51°13.652 2°55.929 114.5 2.4 297 -999
2008-07-18 08:03:11 51°13.653 2°55.924 114.6 2.6 296 -999
2008-07-18 08:03:17 51°13.656 2°55.918 114.7 2.7 297 -999
2008-07-18 08:03:22 51°13.657 2°55.912 114.8 2.8 296 -999
2008-07-18 08:03:26 51°13.659 2°55.908 114.8 2.9 297 -999
2008-07-18 08:03:31 51°13.66 2°55.902 114.6 3 296 -999
2008-07-18 08:03:36 51°13.662 2°55.895 114.2 3.2 296 -999
2008-07-18 08:03:41 51°13.664 2°55.889 113.8 3.3 295 -999
2008-07-18 08:03:46 51°13.666 2°55.882 113.5 3.4 296 -999
2008-07-18 08:03:51 51°13.668 2°55.875 113.3 3.4 296 -999
2008-07-18 08:03:57 51°13.671 2°55.867 113.2 3.4 296 -999
2008-07-18 08:04:02 51°13.673 2°55.86 113.1 3.5 296 -999
2008-07-18 08:04:06 51°13.675 2°55.855 112.9 3.5 296 -999
2008-07-18 08:04:11 51°13.677 2°55.848 112.4 3.6 295 -999
2008-07-18 08:04:16 51°13.679 2°55.84 111.8 3.6 295 -999
2008-07-18 08:04:22 51°13.681 2°55.831 110.9 3.7 294 -999
2008-07-18 08:04:27 51°13.683 2°55.824 109.8 3.5 293 -999
2008-07-18 08:04:32 51°13.685 2°55.818 108.8 3.4 293 -999
2008-07-18 08:04:37 51°13.687 2°55.811 107.8 3.3 292 -999
2008-07-18 08:04:42 51°13.688 2°55.805 106.6 3.2 291 -999
2008-07-18 08:04:47 51°13.69 2°55.798 105.1 3.1 290 -999
2008-07-18 08:04:51 51°13.691 2°55.793 104.3 3 289 10.3
2008-07-18 08:04:56 51°13.692 2°55.787 103.4 2.9 289 9.6
2008-07-18 08:05:01 51°13.693 2°55.782 102.9 2.7 288 9.8
2008-07-18 08:05:06 51°13.694 2°55.776 101.6 2.6 288 9.8
2008-07-18 08:05:11 51°13.695 2°55.771 100.8 2.3 286 9.8
2008-07-18 08:05:16 51°13.696 2°55.767 99.3 2 287 10.1
2008-07-18 08:05:21 51°13.697 2°55.764 97.4 1.7 287 10.3
2008-07-18 08:05:25 51°13.697 2°55.761 95.1 1.3 290 10.4
2008-07-18 08:05:31 51°13.698 2°55.759 92.7 0.9 295 10.5
2008-07-18 08:05:36 51°13.698 2°55.758 90 0.6 315 10.5
2008-07-18 08:05:41 51°13.699 2°55.758 86.8 0.4 348 10.6
2008-07-18 08:05:46 51°13.699 2°55.759 82.9 0.5 23 10.6
2008-07-18 08:05:50 51°13.7 2°55.76 78.6 0.8 45 10.7
2008-07-18 08:05:56 51°13.701 2°55.762 73.7 1.1 47 10.4
2008-07-18 08:06:01 51°13.702 2°55.764 68.4 1.4 49 10.4
2008-07-18 08:06:06 51°13.704 2°55.767 62.5 1.7 46 10.6
2008-07-18 08:06:11 51°13.706 2°55.77 56.4 1.9 45 10.5
2008-07-18 08:06:16 51°13.708 2°55.772 50 1.9 41 10.4
2008-07-18 08:06:21 51°13.71 2°55.775 43.7 1.7 37 10.3
2008-07-18 08:06:26 51°13.712 2°55.776 39.1 1.5 36 10.3
2008-07-18 08:06:30 51°13.713 2°55.778 36.1 1.3 32 10.5
2008-07-18 08:06:35 51°13.714 2°55.779 33 1 32 10.5
2008-07-18 08:06:40 51°13.715 2°55.779 30 0.8 31 10.6
2008-07-18 08:06:46 51°13.716 2°55.78 27.1 0.5 37 10.6
2008-07-18 08:06:51 51°13.716 2°55.781 24.7 0.2 59 10.3
2008-07-18 08:06:56 51°13.716 2°55.781 22.7 0.1 146 10.3
2008-07-18 08:07:00 51°13.715 2°55.781 21.3 0.4 181 10.3
2008-07-18 08:07:05 51°13.714 2°55.781 20.1 0.6 187 10.6
2008-07-18 08:07:10 51°13.713 2°55.78 18.9 0.9 189 10.3
2008-07-18 08:07:16 51°13.711 2°55.78 18 1.1 190 10.4
2008-07-18 08:07:21 51°13.71 2°55.779 17.3 1.2 189 -999
2008-07-18 08:07:26 51°13.708 2°55.779 16.1 1.4 190 -999
2008-07-18 08:07:31 51°13.706 2°55.778 14.7 1.3 191 -999
2008-07-18 08:07:37 51°13.704 2°55.778 13.9 1.2 190 -999
2008-07-18 08:07:42 51°13.703 2°55.777 12.9 0.8 191 -999
2008-07-18 08:07:47 51°13.703 2°55.777 11.6 0.3 173 -999
2008-07-18 08:07:52 51°13.703 2°55.777 8.7 0.3 1 -999
2008-07-18 08:07:57 51°13.704 2°55.777 3.6 0.7 4 -999
2008-07-18 08:08:01 51°13.706 2°55.777 358.5 1 357 4.9
2008-07-18 08:08:07 51°13.708 2°55.776 354.1 1.5 351 10.2
2008-07-18 08:08:10 51°13.709 2°55.776 349.3 1.7 345 10.4
2008-07-18 08:08:17 51°13.713 2°55.774 344.6 2 340 10.4
2008-07-18 08:08:21 51°13.715 2°55.772 338.6 2.3 333 10.5
2008-07-18 08:08:26 51°13.718 2°55.769 333 2.7 328 10.5
2008-07-18 08:08:30 51°13.721 2°55.766 328.7 2.9 324 10.5
2008-07-18 08:08:36 51°13.725 2°55.761 323.7 3.3 321 10.5
2008-07-18 08:08:41 51°13.729 2°55.755 320 3.5 319 10.4
2008-07-18 08:08:46 51°13.733 2°55.75 317.2 3.9 316 10.5
2008-07-18 08:08:51 51°13.737 2°55.743 315.6 4.2 315 10.6
2008-07-18 08:08:56 51°13.741 2°55.736 314.9 4.5 315 10.2
2008-07-18 08:09:01 51°13.746 2°55.729 314.9 4.7 316 10.2
2008-07-18 08:09:06 51°13.75 2°55.722 315.4 4.9 315 10.3
2008-07-18 08:09:11 51°13.756 2°55.714 315.9 5.1 317 10.2
2008-07-18 08:09:16 51°13.761 2°55.706 317.1 5.4 318 10.2
2008-07-18 08:09:21 51°13.767 2°55.698 318.6 5.5 319 10.2
2008-07-18 08:09:26 51°13.773 2°55.69 320 5.7 320 10.2
2008-07-18 08:09:31 51°13.779 2°55.682 320.7 5.8 319 10.2
2008-07-18 08:09:36 51°13.785 2°55.674 320.7 5.9 322 10.4
2008-07-18 08:09:41 51°13.792 2°55.665 321.6 6 322 10.6
2008-07-18 08:09:46 51°13.799 2°55.657 323.1 6.1 324 10.5
2008-07-18 08:09:51 51°13.806 2°55.649 325 6.2 326 10.5
2008-07-18 08:09:56 51°13.814 2°55.642 327.1 6.3 327 10.5
2008-07-18 08:10:01 51°13.821 2°55.634 328.6 6.4 328 10.5
2008-07-18 08:10:05 51°13.827 2°55.629 329.4 6.4 328 10.6
2008-07-18 08:10:10 51°13.835 2°55.621 329.7 6.5 329 10.6
2008-07-18 08:10:15 51°13.843 2°55.614 330.2 6.5 331 10.5
2008-07-18 08:10:20 51°13.851 2°55.607 331.5 6.6 331 10.5
2008-07-18 08:10:26 51°13.861 2°55.599 333 6.6 333 10.5
2008-07-18 08:10:30 51°13.867 2°55.593 334.4 6.6 332 10.4
2008-07-18 08:10:35 51°13.875 2°55.586 334.9 6.7 333 10.4
2008-07-18 08:10:40 51°13.884 2°55.58 335.2 6.7 333 10.4
2008-07-18 08:10:45 51°13.892 2°55.573 335.5 6.7 335 10.4
2008-07-18 08:10:50 51°13.901 2°55.567 336.4 6.8 335 10.4
2008-07-18 08:10:55 51°13.909 2°55.561 337.1 6.8 336 10.5
2008-07-18 08:11:00 51°13.918 2°55.554 337.5 6.8 336 10.4
2008-07-18 08:11:05 51°13.926 2°55.548 337.5 6.8 335 10.5
2008-07-18 08:11:09 51°13.933 2°55.544 337.3 6.8 336 10.5
2008-07-18 08:11:15 51°13.944 2°55.536 337.3 6.8 335 10.6
2008-07-18 08:11:20 51°13.952 2°55.53 337 6.9 335 10.6
2008-07-18 08:11:25 51°13.961 2°55.523 336.8 6.9 335 10.5
2008-07-18 08:11:30 51°13.969 2°55.517 336.8 6.9 335 10.5
2008-07-18 08:11:35 51°13.978 2°55.511 336.7 6.8 334 10.5
2008-07-18 08:11:39 51°13.985 2°55.505 336 6.9 334 10.1
2008-07-18 08:11:44 51°13.993 2°55.499 335.7 6.9 334 10.2
2008-07-18 08:11:49 51°14.002 2°55.492 335.7 6.8 335 10.1
2008-07-18 08:11:54 51°14.011 2°55.486 336.3 6.9 335 9.9
2008-07-18 08:11:59 51°14.019 2°55.48 336.7 6.8 335 10
2008-07-18 08:12:03 51°14.026 2°55.475 336.9 6.8 335 10.1
2008-07-18 08:12:08 51°14.035 2°55.468 336.9 6.8 335 10.5
2008-07-18 08:12:14 51°14.045 2°55.461 336.8 6.9 335 10.6
2008-07-18 08:12:19 51°14.054 2°55.454 336.8 6.9 335 10.6
2008-07-18 08:12:24 51°14.063 2°55.448 336.7 7 335 -999
2008-07-18 08:12:29 51°14.071 2°55.441 336.4 7.1 335 10.7
2008-07-18 08:12:34 51°14.08 2°55.434 336 7.2 334 10.7
2008-07-18 08:12:40 51°14.091 2°55.425 335.5 7.3 333 10.6
2008-07-18 08:12:44 51°14.098 2°55.419 335.2 7.4 334 10.5
2008-07-18 08:12:48 51°14.106 2°55.414 335.1 7.5 334 10.5
2008-07-18 08:12:54 51°14.117 2°55.404 335.3 7.6 334 10.4
2008-07-18 08:13:00 51°14.129 2°55.395 336 7.7 334 10.3
2008-07-18 08:13:05 51°14.138 2°55.387 336 7.8 333 10
2008-07-18 08:13:10 51°14.148 2°55.379 335.6 7.9 333 9.8
2008-07-18 08:13:14 51°14.156 2°55.372 334.5 8.1 331 10.1
2008-07-18 08:13:19 51°14.166 2°55.364 333.8 8.3 331 10.1
2008-07-18 08:13:26 51°14.18 2°55.35 333 8.4 328 10.1
2008-07-18 08:13:29 51°14.186 2°55.344 331.6 8.5 328 10.3
2008-07-18 08:13:35 51°14.198 2°55.331 329.6 8.6 325 10.5
2008-07-18 08:13:39 51°14.205 2°55.323 327.9 8.6 325 10.4
2008-07-18 08:13:45 51°14.217 2°55.309 326.8 8.8 323 10.3
2008-07-18 08:13:50 51°14.227 2°55.296 325.6 8.9 321 10
2008-07-18 08:13:55 51°14.236 2°55.283 323 9.1 318 10.3
2008-07-18 08:14:00 51°14.246 2°55.269 321.5 9.2 318 10.5
2008-07-18 08:14:05 51°14.255 2°55.255 319.8 9.3 315 10.6
2008-07-18 08:14:10 51°14.264 2°55.24 318 9.5 314 10.6
2008-07-18 08:14:15 51°14.273 2°55.224 316.2 9.5 313 10.3
2008-07-18 08:14:19 51°14.28 2°55.212 315.3 9.6 313 10
2008-07-18 08:14:25 51°14.291 2°55.193 314.5 9.6 312 9.8
2008-07-18 08:14:29 51°14.298 2°55.18 313.6 9.7 311 9.7
2008-07-18 08:14:35 51°14.309 2°55.161 312.6 9.8 311 9.9
2008-07-18 08:14:40 51°14.318 2°55.144 312.3 9.9 311 10.1
2008-07-18 08:14:45 51°14.327 2°55.127 312.3 10 311 10.1
2008-07-18 08:14:49 51°14.334 2°55.114 312.3 10.1 310 10.5
2008-07-18 08:14:54 51°14.343 2°55.097 311.9 10.1 309 10.7
2008-07-18 08:14:59 51°14.352 2°55.079 311.3 10.2 310 10.4
2008-07-18 08:15:04 51°14.361 2°55.062 311.4 10.3 310 10.6
2008-07-18 08:15:09 51°14.37 2°55.044 311.4 10.3 310 11
2008-07-18 08:15:14 51°14.379 2°55.027 311.2 10.4 310 10.1
2008-07-18 08:15:19 51°14.389 2°55.01 312.2 10.3 312 9.9
2008-07-18 08:15:24 51°14.399 2°54.992 313.7 10.4 311 10.1
2008-07-18 08:15:28 51°14.406 2°54.978 313.9 10.5 311 9.9
2008-07-18 08:15:33 51°14.416 2°54.96 314.1 10.6 311 10.4
2008-07-18 08:15:38 51°14.425 2°54.942 314 10.6 311 10.2
2008-07-18 08:15:44 51°14.438 2°54.922 315 10.6 314 10.4
2008-07-18 08:15:48 51°14.446 2°54.909 316.6 10.7 315 10.4
2008-07-18 08:15:52 51°14.454 2°54.895 319.1 10.7 316 10.3
2008-07-18 08:15:58 51°14.467 2°54.876 320.7 10.7 317 10.1
2008-07-18 08:16:03 51°14.478 2°54.86 321.7 10.7 318 10
2008-07-18 08:16:08 51°14.49 2°54.846 323.7 10.6 322 9.9
2008-07-18 08:16:13 51°14.503 2°54.833 328.7 10.6 326 9.6
2008-07-18 08:16:17 51°14.513 2°54.822 330.6 10.7 326 9.7
2008-07-18 08:16:23 51°14.528 2°54.809 333 10.7 330 9.7
2008-07-18 08:16:28 51°14.542 2°54.799 337.5 10.7 336 9.4
2008-07-18 08:16:33 51°14.556 2°54.792 343.8 10.8 342 9.4
2008-07-18 08:16:37 51°14.567 2°54.786 347.6 10.9 344 9.3
2008-07-18 08:16:42 51°14.582 2°54.78 349.8 11 346 9.2
2008-07-18 08:16:47 51°14.597 2°54.775 351.6 11.2 349 9.2
2008-07-18 08:16:53 51°14.616 2°54.771 355.2 11.2 351 9.1
2008-07-18 08:16:57 51°14.628 2°54.767 356.7 11.3 350 9.1
2008-07-18 08:17:02 51°14.644 2°54.762 355.8 11.4 349 9.1
2008-07-18 08:17:07 51°14.659 2°54.757 354.4 11.5 348 9.1
2008-07-18 08:17:12 51°14.675 2°54.752 353.9 11.5 348 9
2008-07-18 08:17:17 51°14.691 2°54.746 353.4 11.6 347 9.2
2008-07-18 08:17:22 51°14.706 2°54.74 352.7 11.7 347 9.1
2008-07-18 08:17:27 51°14.722 2°54.734 352.8 11.7 348 9.1
2008-07-18 08:17:32 51°14.738 2°54.729 353.2 11.7 347 9.1
2008-07-18 08:17:37 51°14.754 2°54.723 352.7 11.7 347 9
2008-07-18 08:17:42 51°14.77 2°54.717 352.8 11.7 347 9.2
2008-07-18 08:17:47 51°14.786 2°54.711 352.6 11.8 347 9
2008-07-18 08:17:52 51°14.802 2°54.706 352.5 11.8 348 9
2008-07-18 08:17:57 51°14.818 2°54.7 352.4 11.8 347 9.1
2008-07-18 08:18:02 51°14.834 2°54.695 352.4 11.8 348 8.9
2008-07-18 08:18:07 51°14.85 2°54.689 352.8 11.7 348 8.8
2008-07-18 08:18:12 51°14.865 2°54.684 353.3 11.7 349 9
2008-07-18 08:18:17 51°14.881 2°54.678 352.9 11.7 347 8.9
2008-07-18 08:18:22 51°14.897 2°54.674 352.6 11.7 349 8.8
2008-07-18 08:18:27 51°14.914 2°54.668 352.9 11.7 348 8.7
2008-07-18 08:18:32 51°14.93 2°54.664 353.4 11.7 349 8.7
2008-07-18 08:18:37 51°14.946 2°54.658 353.7 11.7 349 8.7
2008-07-18 08:18:42 51°14.962 2°54.654 353.5 11.7 349 8.6
2008-07-18 08:18:47 51°14.977 2°54.648 353.3 11.7 348 8.5
2008-07-18 08:18:53 51°14.996 2°54.642 353.4 11.7 349 8.2
2008-07-18 08:18:57 51°15.009 2°54.639 353.5 11.6 349 8.3
2008-07-18 08:19:02 51°15.025 2°54.633 353.5 11.6 349 8.2
2008-07-18 08:19:07 51°15.041 2°54.629 353.8 11.5 350 8.1
2008-07-18 08:19:12 51°15.056 2°54.625 355.3 11.5 351 8
2008-07-18 08:19:17 51°15.072 2°54.621 355.9 11.5 352 8
2008-07-18 08:19:22 51°15.088 2°54.618 356.8 11.5 353 7.9
2008-07-18 08:19:27 51°15.104 2°54.615 356.8 11.5 352 7.8
2008-07-18 08:19:33 51°15.123 2°54.61 356.7 11.5 352 7.9
2008-07-18 08:19:37 51°15.135 2°54.608 357 11.5 353 7.7
2008-07-18 08:19:42 51°15.151 2°54.604 357 11.6 352 7.9
2008-07-18 08:19:47 51°15.167 2°54.6 357 11.6 352 7.9
2008-07-18 08:19:52 51°15.183 2°54.597 357 11.6 352 8.1
2008-07-18 08:19:57 51°15.199 2°54.593 356.7 11.6 351 8.2
2008-07-18 08:20:02 51°15.215 2°54.59 356.8 11.7 352 8.1
2008-07-18 08:20:07 51°15.231 2°54.586 357.2 11.7 351 8.2
2008-07-18 08:20:12 51°15.247 2°54.583 356.9 11.7 353 8.3
2008-07-18 08:20:17 51°15.263 2°54.579 357.6 11.7 351 8.2
2008-07-18 08:20:22 51°15.279 2°54.575 357.2 11.7 352 8.2
2008-07-18 08:20:27 51°15.295 2°54.572 356.7 11.7 351 8.4
2008-07-18 08:20:32 51°15.311 2°54.568 356.9 11.7 351 8.4
2008-07-18 08:20:37 51°15.327 2°54.564 356.8 11.7 352 8.4
2008-07-18 08:20:42 51°15.343 2°54.56 356.9 11.7 351 8.5
2008-07-18 08:20:47 51°15.359 2°54.557 357.1 11.7 352 8.6
2008-07-18 08:20:52 51°15.375 2°54.552 355.6 11.7 349 8.6
2008-07-18 08:20:57 51°15.391 2°54.547 354.9 11.7 350 8.7
2008-07-18 08:21:02 51°15.407 2°54.542 354.3 11.7 349 8.6
2008-07-18 08:21:07 51°15.423 2°54.536 353.5 11.7 346 8.7
2008-07-18 08:21:12 51°15.439 2°54.532 353.4 11.7 350 8.9
2008-07-18 08:21:17 51°15.455 2°54.526 353.9 11.7 348 8.8
2008-07-18 08:21:22 51°15.47 2°54.521 353.4 11.7 348 8.9
2008-07-18 08:21:27 51°15.486 2°54.515 353.3 11.7 348 8.9
2008-07-18 08:21:33 51°15.505 2°54.509 353.1 11.6 348 9
2008-07-18 08:21:37 51°15.518 2°54.505 353 11.7 348 9.1
2008-07-18 08:21:42 51°15.534 2°54.499 353 11.7 348 9.1
2008-07-18 08:21:47 51°15.549 2°54.494 353.1 11.7 349 9.2
2008-07-18 08:21:52 51°15.565 2°54.489 353.6 11.7 349 9.2
2008-07-18 08:21:57 51°15.581 2°54.484 354 11.7 348 9.4
2008-07-18 08:22:02 51°15.597 2°54.479 353.7 11.7 349 9.3
2008-07-18 08:22:07 51°15.613 2°54.475 354.2 11.7 350 9.4
2008-07-18 08:22:12 51°15.629 2°54.47 354.9 11.8 351 9.5
2008-07-18 08:22:17 51°15.645 2°54.466 355.5 11.7 351 9.4
2008-07-18 08:22:22 51°15.661 2°54.462 356.1 11.7 352 9.5
2008-07-18 08:22:27 51°15.677 2°54.459 357.3 11.7 352 9.5
2008-07-18 08:22:32 51°15.693 2°54.455 357 11.7 351 9.6
2008-07-18 08:22:37 51°15.71 2°54.451 356.8 11.7 351 9.6
2008-07-18 08:22:42 51°15.725 2°54.446 356.2 11.7 351 9.8
2008-07-18 08:22:47 51°15.741 2°54.442 356 11.7 350 9.7
2008-07-18 08:22:52 51°15.757 2°54.438 356.3 11.7 351 9.8
2008-07-18 08:22:57 51°15.773 2°54.434 356.6 11.7 352 9.9
2008-07-18 08:23:02 51°15.789 2°54.431 357 11.7 352 9.9
2008-07-18 08:23:07 51°15.806 2°54.426 357.4 11.7 351 10.1
2008-07-18 08:23:12 51°15.822 2°54.423 357.6 11.7 353 9.9
2008-07-18 08:23:17 51°15.838 2°54.419 357.6 11.7 351 10.2
2008-07-18 08:23:22 51°15.854 2°54.416 357.3 11.7 353 10.1
2008-07-18 08:23:27 51°15.87 2°54.412 357.1 11.7 351 10.2
2008-07-18 08:23:33 51°15.889 2°54.408 356.7 11.6 351 10.2
2008-07-18 08:23:37 51°15.902 2°54.404 356.5 11.7 350 10.3
2008-07-18 08:23:42 51°15.918 2°54.399 356 11.7 346 10.3
2008-07-18 08:23:47 51°15.933 2°54.391 352.1 11.7 343 10.4
2008-07-18 08:23:52 51°15.949 2°54.384 350.5 11.7 342 10.6
2008-07-18 08:23:57 51°15.964 2°54.374 348.2 11.7 338 10.5
2008-07-18 08:24:02 51°15.979 2°54.364 343.9 11.8 336 10.4
2008-07-18 08:24:07 51°15.994 2°54.353 342.3 11.8 334 10.4
2008-07-18 08:24:12 51°16.008 2°54.341 340.1 11.8 332 10.5
2008-07-18 08:24:17 51°16.023 2°54.328 338.3 11.9 331 10.6
2008-07-18 08:24:22 51°16.037 2°54.314 336.7 12 329 10.7
2008-07-18 08:24:27 51°16.051 2°54.301 336.1 11.9 329 10.6
2008-07-18 08:24:32 51°16.065 2°54.286 334.5 12 326 10.7
2008-07-18 08:24:37 51°16.079 2°54.272 332.8 12 326 10.7
2008-07-18 08:24:42 51°16.092 2°54.256 331.7 12 324 10.7
2008-07-18 08:24:47 51°16.106 2°54.24 330.3 11.9 324 10.8
2008-07-18 08:24:52 51°16.119 2°54.225 329.9 11.7 324 10.7
2008-07-18 08:24:57 51°16.132 2°54.21 329.4 11.5 323 10.7
2008-07-18 08:25:02 51°16.145 2°54.195 329 11.4 323 10.7
2008-07-18 08:25:07 51°16.157 2°54.179 328.7 11.2 322 10.7
2008-07-18 08:25:12 51°16.169 2°54.164 328 11.2 321 10.6
2008-07-18 08:25:17 51°16.181 2°54.149 327.2 11.1 321 10.7
2008-07-18 08:25:22 51°16.193 2°54.134 328.2 11 323 10.8
2008-07-18 08:25:27 51°16.205 2°54.119 328.5 11 322 10.8
2008-07-18 08:25:33 51°16.22 2°54.102 329.3 10.9 324 10.7
2008-07-18 08:25:37 51°16.229 2°54.091 330.1 10.9 324 10.8
2008-07-18 08:25:42 51°16.242 2°54.077 330.3 10.9 324 10.8
2008-07-18 08:25:47 51°16.254 2°54.063 330.8 10.8 324 10.9
2008-07-18 08:25:52 51°16.266 2°54.049 330.9 10.8 325 10.8
2008-07-18 08:25:57 51°16.278 2°54.035 330.9 10.8 324 10.8
2008-07-18 08:26:02 51°16.29 2°54.021 330.9 10.7 325 10.7
2008-07-18 08:26:07 51°16.302 2°54.007 331 10.7 323 10.8
2008-07-18 08:26:12 51°16.314 2°53.993 330.1 10.7 324 10.8
2008-07-18 08:26:17 51°16.326 2°53.979 330 10.7 324 10.9
2008-07-18 08:26:22 51°16.338 2°53.966 330.4 10.7 324 10.8
2008-07-18 08:26:27 51°16.35 2°53.952 331.1 10.7 325 10.9
2008-07-18 08:26:32 51°16.362 2°53.939 331.5 10.7 324 11
2008-07-18 08:26:37 51°16.374 2°53.925 331 10.7 324 10.8
2008-07-18 08:26:42 51°16.386 2°53.911 330.5 10.6 324 11
2008-07-18 08:26:47 51°16.398 2°53.897 330.7 10.7 325 11
2008-07-18 08:26:52 51°16.41 2°53.883 331.3 10.6 325 11
2008-07-18 08:26:57 51°16.423 2°53.87 331.6 10.7 325 11
2008-07-18 08:27:02 51°16.435 2°53.856 331.8 10.7 325 11.1
2008-07-18 08:27:07 51°16.447 2°53.842 331.6 10.6 326 11
2008-07-18 08:27:12 51°16.459 2°53.829 332.1 10.7 326 11
2008-07-18 08:27:17 51°16.472 2°53.816 332.4 10.6 326 11
2008-07-18 08:27:22 51°16.484 2°53.803 332.1 10.7 325 10.9
2008-07-18 08:27:27 51°16.497 2°53.789 332 10.7 326 11
2008-07-18 08:27:32 51°16.51 2°53.776 332.2 10.7 325 11
2008-07-18 08:27:37 51°16.522 2°53.763 331.8 10.6 326 11.1
2008-07-18 08:27:42 51°16.534 2°53.75 331.9 10.6 326 11.1
2008-07-18 08:27:47 51°16.546 2°53.737 332.3 10.6 326 11.1
2008-07-18 08:27:52 51°16.558 2°53.723 331.7 10.6 325 11
2008-07-18 08:27:57 51°16.57 2°53.71 331.1 10.6 325 11.1
2008-07-18 08:28:02 51°16.582 2°53.697 330.7 10.5 325 11
2008-07-18 08:28:07 51°16.593 2°53.683 330.7 10.6 324 11
2008-07-18 08:28:12 51°16.605 2°53.669 330.5 10.6 324 11
2008-07-18 08:28:17 51°16.617 2°53.656 330.4 10.6 324 11.1
2008-07-18 08:28:22 51°16.629 2°53.642 330.1 10.6 325 11
2008-07-18 08:28:27 51°16.641 2°53.629 330.1 10.6 324 11.1
2008-07-18 08:28:33 51°16.655 2°53.613 330.4 10.6 326 11.1
2008-07-18 08:28:37 51°16.665 2°53.602 331 10.5 326 10.9
2008-07-18 08:28:42 51°16.677 2°53.589 331.4 10.5 326 11.2
2008-07-18 08:28:47 51°16.689 2°53.576 331 10.5 326 11
2008-07-18 08:28:52 51°16.701 2°53.563 330.9 10.6 325 11
2008-07-18 08:28:57 51°16.713 2°53.55 330.9 10.5 326 10.8
2008-07-18 08:29:02 51°16.726 2°53.537 331.4 10.5 327 10.8
2008-07-18 08:29:07 51°16.738 2°53.524 331.9 10.5 326 10.8
2008-07-18 08:29:12 51°16.75 2°53.511 332.2 10.5 328 10.6
2008-07-18 08:29:17 51°16.763 2°53.499 332.4 10.5 327 10.8
2008-07-18 08:29:22 51°16.775 2°53.486 332.6 10.5 328 10.7
2008-07-18 08:29:27 51°16.787 2°53.474 333 10.5 328 10.8
2008-07-18 08:29:32 51°16.8 2°53.461 332.8 10.6 327 10.8
2008-07-18 08:29:37 51°16.812 2°53.448 332.4 10.5 327 10.9
2008-07-18 08:29:42 51°16.824 2°53.436 332.1 10.6 327 10.8
2008-07-18 08:29:47 51°16.837 2°53.423 331.9 10.5 327 10.6
2008-07-18 08:29:52 51°16.849 2°53.411 332.5 10.5 328 10.6
2008-07-18 08:29:57 51°16.861 2°53.398 332.6 10.5 328 10.5
2008-07-18 08:30:02 51°16.874 2°53.386 332.8 10.5 329 10
2008-07-18 08:30:07 51°16.886 2°53.374 333 10.5 329 9.6
2008-07-18 08:30:12 51°16.899 2°53.363 334.3 10.4 332 9
2008-07-18 08:30:17 51°16.912 2°53.352 336.9 10.3 333 8.6
2008-07-18 08:30:22 51°16.924 2°53.342 338.3 10.2 335 8
2008-07-18 08:30:27 51°16.937 2°53.333 339.6 10.1 335 7.8
2008-07-18 08:30:33 51°16.953 2°53.322 340.3 10.1 336 7.8
2008-07-18 08:30:37 51°16.963 2°53.315 341 10 336 7.7
2008-07-18 08:30:42 51°16.975 2°53.306 341.2 10 336 7.7
2008-07-18 08:30:47 51°16.988 2°53.297 341.7 10 337 7.8
2008-07-18 08:30:52 51°17.001 2°53.289 342.3 10.1 339 7.9
2008-07-18 08:30:57 51°17.014 2°53.28 343.2 10.2 338 8
2008-07-18 08:31:02 51°17.028 2°53.272 343.4 10.1 339 8
2008-07-18 08:31:07 51°17.041 2°53.264 343.3 10.1 337 8
2008-07-18 08:31:12 51°17.054 2°53.255 342.7 10.2 338 8
2008-07-18 08:31:17 51°17.067 2°53.246 342.6 10.1 337 8.1
2008-07-18 08:31:22 51°17.08 2°53.238 342.4 10.2 337 8.3
2008-07-18 08:31:27 51°17.093 2°53.229 342 10.2 338 8.5
2008-07-18 08:31:32 51°17.106 2°53.221 342.2 10.1 341 8.1
2008-07-18 08:31:37 51°17.119 2°53.216 346.3 10 345 8
2008-07-18 08:31:42 51°17.133 2°53.211 349.6 10 348 8.6
2008-07-18 08:31:47 51°17.147 2°53.208 353.6 9.9 353 8.4
2008-07-18 08:31:52 51°17.16 2°53.206 357.1 9.9 355 8.8
2008-07-18 08:31:57 51°17.174 2°53.205 359.6 9.8 358 8.5
2008-07-18 08:32:02 51°17.188 2°53.205 2.1 9.9 -999 8.6
2008-07-18 08:32:07 51°17.201 2°53.206 4.4 9.8 4 8.7
2008-07-18 08:32:12 51°17.215 2°53.209 8.6 9.8 8 8.8
2008-07-18 08:32:17 51°17.228 2°53.212 11.4 9.8 10 8.7
2008-07-18 08:32:22 51°17.241 2°53.217 13.9 9.8 13 8.9
2008-07-18 08:32:27 51°17.254 2°53.223 16.4 9.8 15 8.9
2008-07-18 08:32:33 51°17.27 2°53.23 18.1 9.7 17 8.9
2008-07-18 08:32:37 51°17.28 2°53.236 20.1 9.7 20 8.9
2008-07-18 08:32:42 51°17.292 2°53.246 24.6 9.7 27 8.7
2008-07-18 08:32:47 51°17.304 2°53.255 27.9 9.7 28 9
2008-07-18 08:32:52 51°17.315 2°53.267 31.3 9.6 32 9.1
2008-07-18 08:32:57 51°17.327 2°53.278 33.2 9.7 33 8.8
2008-07-18 08:33:02 51°17.338 2°53.291 35.1 9.7 35 8.8
2008-07-18 08:33:07 51°17.349 2°53.304 36.8 9.7 36 9
2008-07-18 08:33:13 51°17.362 2°53.319 37.5 9.8 36 9
2008-07-18 08:33:17 51°17.37 2°53.33 37.7 9.8 37 8.7
2008-07-18 08:33:22 51°17.381 2°53.342 37.1 9.8 35 9
2008-07-18 08:33:27 51°17.392 2°53.355 37 9.8 37 9.2
2008-07-18 08:33:32 51°17.403 2°53.368 37.5 9.8 37 9.1
2008-07-18 08:33:37 51°17.414 2°53.381 37.6 9.8 38 8.9
2008-07-18 08:33:42 51°17.425 2°53.395 38.5 9.8 37 9
2008-07-18 08:33:47 51°17.436 2°53.408 38.2 9.7 37 8.9
2008-07-18 08:33:52 51°17.446 2°53.421 38.4 9.7 38 8.7
2008-07-18 08:33:57 51°17.457 2°53.434 38.2 9.8 37 9
2008-07-18 08:34:02 51°17.468 2°53.447 37.6 9.8 38 8.9
2008-07-18 08:34:07 51°17.478 2°53.46 38.1 9.7 36 8.9
2008-07-18 08:34:12 51°17.489 2°53.473 37.8 9.8 37 9.1
2008-07-18 08:34:17 51°17.5 2°53.486 37.6 9.8 37 9
2008-07-18 08:34:22 51°17.511 2°53.499 38.3 9.8 36 9
2008-07-18 08:34:27 51°17.522 2°53.512 37.8 9.8 37 9.2
2008-07-18 08:34:33 51°17.535 2°53.527 37.2 9.9 34 9.3
2008-07-18 08:34:37 51°17.544 2°53.537 36 9.9 36 9.3
2008-07-18 08:34:42 51°17.555 2°53.55 35.8 9.9 34 9
2008-07-18 08:34:47 51°17.567 2°53.562 35.5 9.8 35 9
2008-07-18 08:34:52 51°17.578 2°53.574 36 9.8 35 9.2
2008-07-18 08:34:57 51°17.589 2°53.587 36 9.8 35 9.3
2008-07-18 08:35:02 51°17.6 2°53.599 35.1 9.8 32 8.9
2008-07-18 08:35:07 51°17.612 2°53.611 34.7 9.8 34 9
2008-07-18 08:35:13 51°17.625 2°53.625 35 9.8 33 8.9
2008-07-18 08:35:17 51°17.634 2°53.636 35 9.9 34 9
2008-07-18 08:35:22 51°17.646 2°53.647 34.5 9.8 33 9.3
2008-07-18 08:35:27 51°17.657 2°53.659 35 9.8 34 9.1
2008-07-18 08:35:32 51°17.668 2°53.671 34.8 9.8 34 9
2008-07-18 08:35:37 51°17.68 2°53.683 34.2 9.8 32 9.1
2008-07-18 08:35:42 51°17.691 2°53.695 34.7 9.9 34 9.4
2008-07-18 08:35:47 51°17.703 2°53.707 34.7 9.8 33 9.5
2008-07-18 08:35:52 51°17.714 2°53.719 34.9 9.8 35 9.3
2008-07-18 08:35:57 51°17.725 2°53.731 35.4 9.9 33 9
2008-07-18 08:36:02 51°17.736 2°53.744 35.4 9.9 36 9.4
2008-07-18 08:36:07 51°17.748 2°53.757 35.9 9.9 36 9
2008-07-18 08:36:12 51°17.759 2°53.768 34.9 9.8 33 9.1
2008-07-18 08:36:17 51°17.77 2°53.781 35.2 9.9 34 9.2
2008-07-18 08:36:22 51°17.782 2°53.792 34.7 9.9 33 9.4
2008-07-18 08:36:27 51°17.793 2°53.804 34.3 9.8 32 9.3
2008-07-18 08:36:33 51°17.807 2°53.818 33.5 9.8 31 9.2
2008-07-18 08:36:37 51°17.817 2°53.827 33.1 9.9 33 9.2
2008-07-18 08:36:42 51°17.828 2°53.838 33.3 9.8 31 9.5
2008-07-18 08:36:47 51°17.84 2°53.85 33.6 9.9 34 9.3
2008-07-18 08:36:52 51°17.851 2°53.862 33.8 9.8 32 9.5
2008-07-18 08:36:57 51°17.862 2°53.874 34.3 9.8 34 9.2
2008-07-18 08:37:02 51°17.874 2°53.886 34.7 9.8 32 9.5
2008-07-18 08:37:07 51°17.885 2°53.898 34.4 9.9 34 9.5
2008-07-18 08:37:13 51°17.899 2°53.912 34.1 9.8 32 9.4
2008-07-18 08:37:17 51°17.908 2°53.921 33.7 9.8 34 9.6
2008-07-18 08:37:22 51°17.92 2°53.933 34.5 9.8 33 9.3
2008-07-18 08:37:27 51°17.931 2°53.945 34.6 9.9 33 9.4
2008-07-18 08:37:33 51°17.945 2°53.96 35 9.8 34 9.4
2008-07-18 08:37:37 51°17.954 2°53.969 34.9 9.9 34 9.4
2008-07-18 08:37:42 51°17.966 2°53.981 34.6 9.8 31 9.4
2008-07-18 08:37:47 51°17.977 2°53.993 34.4 9.8 34 9.4
2008-07-18 08:37:52 51°17.989 2°54.004 33.5 9.9 31 9.4
2008-07-18 08:37:57 51°18 2°54.015 33.1 9.9 30 9.5
2008-07-18 08:38:02 51°18.012 2°54.027 32.7 9.8 32 9.5
2008-07-18 08:38:07 51°18.024 2°54.038 32.9 9.9 32 9.5
2008-07-18 08:38:12 51°18.035 2°54.049 32.8 9.9 30 9.6
2008-07-18 08:38:17 51°18.047 2°54.06 31.9 9.9 31 9.6
2008-07-18 08:38:22 51°18.059 2°54.071 31.8 9.9 30 9.6
2008-07-18 08:38:27 51°18.071 2°54.083 32 10 31 9.6
2008-07-18 08:38:32 51°18.083 2°54.094 32.4 9.9 30 9.7
2008-07-18 08:38:37 51°18.094 2°54.104 32.5 9.2 32 9.7
2008-07-18 08:38:42 51°18.104 2°54.114 32.7 8.4 32 9.7
2008-07-18 08:38:47 51°18.113 2°54.124 33.7 7.7 34 9.7
2008-07-18 08:38:52 51°18.121 2°54.132 34.9 7 33 9.8
2008-07-18 08:38:57 51°18.128 2°54.141 35.7 6.5 38 9.8
2008-07-18 08:39:02 51°18.136 2°54.149 37.2 6.1 36 9.9
2008-07-18 08:39:07 51°18.141 2°54.158 38.5 5.6 40 9.8
2008-07-18 08:39:13 51°18.148 2°54.166 39.8 5.2 40 9.8
2008-07-18 08:39:17 51°18.152 2°54.172 41.2 4.8 41 9.8
2008-07-18 08:39:22 51°18.157 2°54.179 42.7 4.6 45 9.9
2008-07-18 08:39:27 51°18.161 2°54.186 44 4.3 45 9.9
2008-07-18 08:39:33 51°18.165 2°54.194 44.8 4 48 9.9
2008-07-18 08:39:37 51°18.168 2°54.199 45.8 3.8 47 9.9
2008-07-18 08:39:42 51°18.172 2°54.205 46.9 3.6 49 9.9
2008-07-18 08:39:47 51°18.175 2°54.211 47.5 3.4 50 9.9
2008-07-18 08:39:53 51°18.178 2°54.218 48.3 3.2 50 9.9
2008-07-18 08:39:57 51°18.18 2°54.222 48.7 3.1 51 10
2008-07-18 08:40:02 51°18.183 2°54.227 49.1 2.9 54 9.9
2008-07-18 08:40:07 51°18.185 2°54.232 49.5 2.8 53 10
2008-07-18 08:40:12 51°18.187 2°54.237 50 2.7 55 10
2008-07-18 08:40:17 51°18.189 2°54.242 50.5 2.5 56 9.9
2008-07-18 08:40:22 51°18.191 2°54.246 51.4 2.4 58 10
2008-07-18 08:40:27 51°18.192 2°54.25 52.2 2.2 63 9.9
2008-07-18 08:40:32 51°18.194 2°54.255 54 2.1 64 10
2008-07-18 08:40:37 51°18.195 2°54.259 56 1.9 70 9.9
2008-07-18 08:40:42 51°18.195 2°54.262 58.4 1.8 71 10
2008-07-18 08:40:47 51°18.196 2°54.266 60.1 1.7 72 10
2008-07-18 08:40:52 51°18.197 2°54.269 61.9 1.5 75 9.9
2008-07-18 08:40:57 51°18.197 2°54.273 62.8 1.4 80 9.9
2008-07-18 08:41:02 51°18.197 2°54.275 62.5 1.2 79 9.9
2008-07-18 08:41:07 51°18.198 2°54.278 61.6 1.1 78 9.9
2008-07-18 08:41:13 51°18.198 2°54.28 60.1 0.9 78 9.9
2008-07-18 08:41:17 51°18.198 2°54.282 58.1 0.8 76 9.9
2008-07-18 08:41:22 51°18.198 2°54.283 56 0.7 79 10
2008-07-18 08:41:27 51°18.198 2°54.285 54.2 0.7 79 10
2008-07-18 08:41:32 51°18.198 2°54.286 52.5 0.6 86 10
2008-07-18 08:41:37 51°18.198 2°54.287 50.9 0.4 87 10
2008-07-18 08:41:42 51°18.198 2°54.288 49.4 0.3 104 10
2008-07-18 08:41:47 51°18.198 2°54.289 48.2 0.3 121 9.9
2008-07-18 08:41:53 51°18.198 2°54.289 47 0.3 132 9.9
2008-07-18 08:41:57 51°18.198 2°54.29 45.5 0.3 151 9.9
2008-07-18 08:42:02 51°18.197 2°54.29 43.9 0.2 165 9.9
2008-07-18 08:42:07 51°18.197 2°54.29 42.5 0.3 152 10
2008-07-18 08:42:13 51°18.196 2°54.291 41.2 0.3 156 9.9
2008-07-18 08:42:17 51°18.196 2°54.291 39.6 0.3 166 9.9
2008-07-18 08:42:22 51°18.196 2°54.291 38.4 0.3 161 9.8
2008-07-18 08:42:27 51°18.195 2°54.291 36.9 0.3 149 9.8
2008-07-18 08:42:32 51°18.195 2°54.291 35.3 0.2 152 9.9
2008-07-18 08:42:37 51°18.195 2°54.291 33.6 0.2 153 9.9
2008-07-18 08:42:42 51°18.195 2°54.292 32.3 0.2 145 9.9
2008-07-18 08:42:47 51°18.195 2°54.292 30.8 0.2 134 9.9
2008-07-18 08:42:52 51°18.194 2°54.292 29.5 0.2 159 9.9
2008-07-18 08:42:57 51°18.194 2°54.293 28.2 0.1 177 9.9
2008-07-18 08:43:02 51°18.194 2°54.293 26.2 0.1 124 10
2008-07-18 08:43:07 51°18.194 2°54.293 25.3 -999 111 9.9
2008-07-18 08:43:12 51°18.194 2°54.293 23.9 0.1 121 9.9
2008-07-18 08:43:17 51°18.194 2°54.293 22.6 -999 64 10
2008-07-18 08:43:22 51°18.194 2°54.293 21.4 -999 27 10
2008-07-18 08:43:27 51°18.194 2°54.293 20.2 -999 11 9.9
2008-07-18 08:43:32 51°18.194 2°54.293 19.4 0.1 306 9.9
2008-07-18 08:43:37 51°18.194 2°54.293 18.4 -999 335 10
2008-07-18 08:43:42 51°18.194 2°54.293 17.4 -999 44 9.9
2008-07-18 08:43:47 51°18.194 2°54.293 16.3 0.1 77 9.9
2008-07-18 08:43:52 51°18.194 2°54.293 15.2 0.1 326 9.9
2008-07-18 08:43:57 51°18.194 2°54.293 14.2 -999 56 9.9
2008-07-18 08:44:02 51°18.194 2°54.293 13.6 -999 321 10
2008-07-18 08:44:07 51°18.194 2°54.293 12.7 -999 48 10
2008-07-18 08:44:13 51°18.194 2°54.293 11.5 0.1 312 10
2008-07-18 08:44:17 51°18.195 2°54.293 10.4 0.1 351 9.9
2008-07-18 08:44:22 51°18.195 2°54.293 9.1 0.1 321 9.9
2008-07-18 08:44:27 51°18.195 2°54.293 7.7 0.1 330 9.9
2008-07-18 08:44:32 51°18.195 2°54.293 6.2 0.2 321 9.9
2008-07-18 08:44:37 51°18.195 2°54.292 4.8 0.2 312 9.9
2008-07-18 08:44:42 51°18.196 2°54.292 3.4 0.2 320 9.9
2008-07-18 08:44:47 51°18.196 2°54.292 1.8 0.2 335 9.8
2008-07-18 08:44:52 51°18.196 2°54.291 0.1 0.2 330 9.9
2008-07-18 08:44:57 51°18.197 2°54.291 358.4 0.3 320 10
2008-07-18 08:45:02 51°18.197 2°54.291 356.5 0.4 318 9.9
2008-07-18 08:45:07 51°18.197 2°54.29 354.3 0.4 325 9.9
2008-07-18 08:45:12 51°18.198 2°54.289 352.7 0.4 322 10
2008-07-18 08:45:17 51°18.198 2°54.289 351.2 0.5 322 10
2008-07-18 08:45:22 51°18.199 2°54.288 349.7 0.5 318 10.1
2008-07-18 08:45:27 51°18.199 2°54.287 348.3 0.5 317 10.1
2008-07-18 08:45:32 51°18.2 2°54.286 346.9 0.6 320 10
2008-07-18 08:45:37 51°18.201 2°54.285 345.3 0.5 316 10
2008-07-18 08:45:42 51°18.201 2°54.285 343.6 0.7 315 10.1
2008-07-18 08:45:47 51°18.202 2°54.284 341.8 0.6 320 9.9
2008-07-18 08:45:52 51°18.202 2°54.282 340.3 0.7 312 9.9
2008-07-18 08:45:57 51°18.203 2°54.282 339 0.7 315 9.9
2008-07-18 08:46:02 51°18.204 2°54.28 337.2 0.8 314 10
2008-07-18 08:46:07 51°18.204 2°54.279 335.3 0.8 308 9.9
2008-07-18 08:46:13 51°18.205 2°54.277 333.8 0.8 306 10
2008-07-18 08:46:17 51°18.206 2°54.276 331.7 0.9 304 10.1
2008-07-18 08:46:22 51°18.206 2°54.274 330 0.9 300 10.1
2008-07-18 08:46:27 51°18.207 2°54.273 328.5 0.8 301 9.9
2008-07-18 08:46:32 51°18.208 2°54.271 327.1 0.9 306 10
2008-07-18 08:46:37 51°18.208 2°54.27 325.9 0.9 297 10
2008-07-18 08:46:42 51°18.209 2°54.268 325.6 0.9 306 10
2008-07-18 08:46:47 51°18.21 2°54.266 325.1 1 302 10.2
2008-07-18 08:46:53 51°18.21 2°54.264 324.7 0.9 305 9.9
2008-07-18 08:46:57 51°18.211 2°54.263 324.7 1 303 9.9
2008-07-18 08:47:02 51°18.212 2°54.261 324.4 0.9 307 10
2008-07-18 08:47:07 51°18.213 2°54.259 324 1 304 10.1
2008-07-18 08:47:12 51°18.213 2°54.257 323.3 0.9 304 10
2008-07-18 08:47:17 51°18.214 2°54.255 323.6 0.9 302 10
2008-07-18 08:47:22 51°18.215 2°54.254 323.5 1 304 10
2008-07-18 08:47:27 51°18.216 2°54.252 323.1 1 300 10.2
2008-07-18 08:47:32 51°18.216 2°54.25 322.6 1 303 10.2
2008-07-18 08:47:37 51°18.217 2°54.248 321.9 1.1 300 10.1
2008-07-18 08:47:42 51°18.218 2°54.246 321.4 1.1 300 10.1
2008-07-18 08:47:47 51°18.219 2°54.243 321 1.1 299 10.1
2008-07-18 08:47:52 51°18.219 2°54.241 320.4 1.1 299 10.2
2008-07-18 08:47:57 51°18.22 2°54.239 319.9 1.1 297 10.1
2008-07-18 08:48:02 51°18.221 2°54.237 319.5 1.1 301 9.9
2008-07-18 08:48:07 51°18.222 2°54.235 319.5 1.2 300 10
2008-07-18 08:48:13 51°18.223 2°54.232 319 1.2 300 10.1
2008-07-18 08:48:17 51°18.223 2°54.23 318.5 1.2 298 10
2008-07-18 08:48:22 51°18.224 2°54.228 318.5 1.2 298 10.1
2008-07-18 08:48:27 51°18.225 2°54.225 318.5 1.2 299 10.1
2008-07-18 08:48:32 51°18.226 2°54.223 318.2 1.3 300 10.2
2008-07-18 08:48:37 51°18.227 2°54.22 317.7 1.3 296 10.1
2008-07-18 08:48:42 51°18.227 2°54.218 317.5 1.3 296 10.1
2008-07-18 08:48:47 51°18.228 2°54.216 317.4 1.3 299 10.2
2008-07-18 08:48:53 51°18.229 2°54.213 317 1.3 295 10.2
2008-07-18 08:48:57 51°18.23 2°54.21 316.9 1.3 298 10.2
2008-07-18 08:49:02 51°18.231 2°54.208 317.1 1.3 298 10.3
2008-07-18 08:49:07 51°18.231 2°54.206 317.1 1.3 298 10.2
2008-07-18 08:49:12 51°18.232 2°54.203 317.3 1.3 296 10.2
2008-07-18 08:49:17 51°18.233 2°54.2 317.5 1.3 298 10.1
2008-07-18 08:49:22 51°18.234 2°54.198 317.8 1.3 298 10.1
2008-07-18 08:49:27 51°18.235 2°54.195 317.6 1.3 300 10.2
2008-07-18 08:49:32 51°18.236 2°54.193 317.5 1.4 296 10.2
2008-07-18 08:49:37 51°18.236 2°54.19 317.8 1.4 299 10.2
2008-07-18 08:49:42 51°18.237 2°54.188 317.8 1.3 296 10.2
2008-07-18 08:49:47 51°18.238 2°54.185 317.7 1.4 301 10.3
2008-07-18 08:49:52 51°18.239 2°54.183 317.4 1.3 297 10.2
2008-07-18 08:49:57 51°18.24 2°54.18 317.9 1.3 300 10.1
2008-07-18 08:50:02 51°18.241 2°54.178 318.1 1.3 297 10.2
2008-07-18 08:50:07 51°18.242 2°54.175 318.5 1.3 300 10.2
2008-07-18 08:50:13 51°18.243 2°54.172 318.5 1.3 297 10.2
2008-07-18 08:50:17 51°18.243 2°54.17 318.5 1.4 299 10.2
2008-07-18 08:50:22 51°18.244 2°54.167 318.4 1.4 297 10.3
2008-07-18 08:50:27 51°18.245 2°54.165 318.3 1.4 299 10.3
2008-07-18 08:50:32 51°18.246 2°54.162 317.9 1.5 297 10.3
2008-07-18 08:50:37 51°18.247 2°54.159 317.6 1.4 300 10.2
2008-07-18 08:50:42 51°18.248 2°54.156 317.2 1.4 301 10.2
2008-07-18 08:50:47 51°18.249 2°54.153 317.1 1.4 300 10.2
2008-07-18 08:50:53 51°18.25 2°54.15 317 1.5 300 10.2
2008-07-18 08:50:57 51°18.251 2°54.148 317.2 1.4 304 10.1
2008-07-18 08:51:02 51°18.252 2°54.145 317.9 1.5 304 10.2
2008-07-18 08:51:07 51°18.254 2°54.142 318.7 1.5 305 10.2
2008-07-18 08:51:13 51°18.255 2°54.139 320 1.6 305 10.3
2008-07-18 08:51:17 51°18.256 2°54.136 321 1.6 306 10.3
2008-07-18 08:51:22 51°18.258 2°54.133 322.5 1.6 308 10.1
2008-07-18 08:51:27 51°18.259 2°54.131 323.9 1.7 307 10.3
2008-07-18 08:51:32 51°18.261 2°54.128 324.3 1.7 311 10.3
2008-07-18 08:51:37 51°18.262 2°54.125 324.5 1.6 310 10.2
2008-07-18 08:51:42 51°18.264 2°54.122 324.3 1.7 311 10.3
2008-07-18 08:51:47 51°18.265 2°54.119 324 1.7 311 10.3
2008-07-18 08:51:52 51°18.267 2°54.116 323.9 1.8 313 10.3
2008-07-18 08:51:57 51°18.268 2°54.113 324.1 1.8 310 10.4
2008-07-18 08:52:02 51°18.27 2°54.11 324.8 1.8 313 10.4
2008-07-18 08:52:07 51°18.272 2°54.107 325.8 1.8 312 10.2
2008-07-18 08:52:13 51°18.274 2°54.104 327.2 1.8 314 10.3
2008-07-18 08:52:17 51°18.275 2°54.101 328.7 1.9 316 10.4
2008-07-18 08:52:22 51°18.277 2°54.099 329.7 1.9 315 10.4
2008-07-18 08:52:27 51°18.279 2°54.096 330.4 1.8 315 10.5
2008-07-18 08:52:32 51°18.281 2°54.093 330.5 1.9 317 10.4
2008-07-18 08:52:37 51°18.283 2°54.09 330.2 1.9 315 10.4
2008-07-18 08:52:42 51°18.284 2°54.087 329.8 2 314 10.4
2008-07-18 08:52:47 51°18.286 2°54.084 328.9 1.9 315 10.5
2008-07-18 08:52:52 51°18.288 2°54.081 328.6 2 314 10.5
2008-07-18 08:52:57 51°18.29 2°54.078 328.5 2 315 10.5
2008-07-18 08:53:02 51°18.292 2°54.075 329.2 1.9 316 10.3
2008-07-18 08:53:07 51°18.294 2°54.072 330.2 1.9 319 10.5
2008-07-18 08:53:13 51°18.296 2°54.069 331.5 1.9 319 10.4
2008-07-18 08:53:17 51°18.298 2°54.066 333.2 1.9 321 10.4
2008-07-18 08:53:22 51°18.3 2°54.064 333.6 1.9 322 10.5
2008-07-18 08:53:27 51°18.302 2°54.061 333.6 1.9 319 10.5
2008-07-18 08:53:32 51°18.304 2°54.058 332.9 1.9 319 10.4
2008-07-18 08:53:37 51°18.306 2°54.055 332.2 2 317 10.5
2008-07-18 08:53:42 51°18.308 2°54.052 330.9 2 316 10.5
2008-07-18 08:53:47 51°18.31 2°54.049 330 2 315 10.6
2008-07-18 08:53:52 51°18.312 2°54.046 328.7 2 315 10.4
2008-07-18 08:53:57 51°18.314 2°54.043 327.9 2.1 316 10.6
2008-07-18 08:54:02 51°18.316 2°54.039 327.8 2.1 315 10.4
2008-07-18 08:54:07 51°18.318 2°54.036 328.6 2.1 316 10.5
2008-07-18 08:54:12 51°18.32 2°54.033 329.2 2.1 317 10.6
2008-07-18 08:54:17 51°18.322 2°54.03 329.9 2.1 316 10.5
2008-07-18 08:54:22 51°18.324 2°54.027 330.3 2 317 10.5
2008-07-18 08:54:27 51°18.326 2°54.024 329.9 2.1 318 10.6
2008-07-18 08:54:32 51°18.328 2°54.021 328.2 2 315 10.5
2008-07-18 08:54:37 51°18.33 2°54.017 327.3 2.1 313 10.5
2008-07-18 08:54:42 51°18.332 2°54.013 325.9 2.1 311 10.5
2008-07-18 08:54:47 51°18.334 2°54.01 325 2.1 312 10.6
2008-07-18 08:54:52 51°18.336 2°54.006 324.5 2.1 311 10.6
2008-07-18 08:54:57 51°18.338 2°54.003 323.4 2.1 311 10.6
2008-07-18 08:55:02 51°18.34 2°53.999 323.4 2.1 309 10.6
2008-07-18 08:55:07 51°18.342 2°53.996 324.3 2.1 311 10.6
2008-07-18 08:55:13 51°18.344 2°53.992 325.3 2.1 312 10.7
2008-07-18 08:55:17 51°18.345 2°53.989 326.7 2 315 10.6
2008-07-18 08:55:22 51°18.348 2°53.986 329.3 2 317 10.6
2008-07-18 08:55:27 51°18.35 2°53.983 331.1 2 319 10.7
2008-07-18 08:55:32 51°18.352 2°53.98 333.8 2.1 320 10.8
2008-07-18 08:55:37 51°18.354 2°53.978 335 2 324 10.7
2008-07-18 08:55:42 51°18.356 2°53.975 335.8 2 323 10.5
2008-07-18 08:55:47 51°18.358 2°53.973 336 1.9 325 10.6
2008-07-18 08:55:53 51°18.361 2°53.969 335.7 2 322 10.6
2008-07-18 08:55:57 51°18.363 2°53.967 335.8 2 324 10.6
2008-07-18 08:56:02 51°18.365 2°53.965 336.3 2 325 10.7
2008-07-18 08:56:07 51°18.368 2°53.963 336.9 2 325 10.8
2008-07-18 08:56:12 51°18.37 2°53.96 338.1 1.9 326 10.6
2008-07-18 08:56:17 51°18.372 2°53.958 339.6 2 327 10.6
2008-07-18 08:56:22 51°18.374 2°53.955 340.4 2 327 10.7
2008-07-18 08:56:27 51°18.377 2°53.953 340.6 1.9 330 10.7
2008-07-18 08:56:32 51°18.379 2°53.951 340.6 2 327 10.8
2008-07-18 08:56:37 51°18.381 2°53.949 340.5 1.9 331 10.5
2008-07-18 08:56:42 51°18.384 2°53.947 341 1.9 329 10.6
2008-07-18 08:56:47 51°18.386 2°53.945 341 1.9 330 10.8
2008-07-18 08:56:52 51°18.388 2°53.942 341.3 2 329 10.7
2008-07-18 08:56:57 51°18.391 2°53.94 341.5 2 329 10.8
2008-07-18 08:57:02 51°18.393 2°53.938 341.2 2 329 10.8
2008-07-18 08:57:07 51°18.396 2°53.936 340.5 2 330 10.7
2008-07-18 08:57:12 51°18.398 2°53.933 340.1 2 327 10.8
2008-07-18 08:57:17 51°18.4 2°53.931 339.6 2 328 10.9
2008-07-18 08:57:22 51°18.402 2°53.928 339.1 2 326 10.9
2008-07-18 08:57:27 51°18.405 2°53.926 339.1 2 327 10.9
2008-07-18 08:57:32 51°18.407 2°53.923 339.2 2.1 326 10.9
2008-07-18 08:57:37 51°18.409 2°53.921 339.5 2.1 329 10.9
2008-07-18 08:57:42 51°18.412 2°53.919 340 2 330 10.8
2008-07-18 08:57:47 51°18.414 2°53.916 340.7 2 331 10.8
2008-07-18 08:57:53 51°18.417 2°53.914 341.9 2.1 330 10.8
2008-07-18 08:57:57 51°18.419 2°53.912 342.1 2 333 10.7
2008-07-18 08:58:02 51°18.422 2°53.91 342.1 2 330 10.8
2008-07-18 08:58:07 51°18.424 2°53.907 341.7 2.1 328 10.8
2008-07-18 08:58:12 51°18.426 2°53.905 340.7 2.1 327 10.8
2008-07-18 08:58:17 51°18.429 2°53.903 339.9 2.1 328 10.9
2008-07-18 08:58:22 51°18.431 2°53.9 339.4 2.1 327 10.9
2008-07-18 08:58:27 51°18.434 2°53.898 339.3 2.1 328 10.9
2008-07-18 08:58:32 51°18.436 2°53.895 339.3 2.1 327 10.9
2008-07-18 08:58:37 51°18.439 2°53.893 340.1 2 328 10.8
2008-07-18 08:58:42 51°18.441 2°53.891 341.1 2.1 331 10.8
2008-07-18 08:58:47 51°18.444 2°53.888 341.8 2.1 329 10.8
2008-07-18 08:58:52 51°18.446 2°53.886 342.1 2.1 331 10.8
2008-07-18 08:58:57 51°18.449 2°53.884 342.2 2.1 329 10.9
2008-07-18 08:59:02 51°18.451 2°53.881 341.9 2.1 331 10.9
2008-07-18 08:59:07 51°18.454 2°53.879 341.2 2 329 10.7
2008-07-18 08:59:12 51°18.456 2°53.877 340.8 2.1 330 10.9
2008-07-18 08:59:17 51°18.459 2°53.875 340.1 2 328 10.9
2008-07-18 08:59:22 51°18.461 2°53.872 339.5 2 327 10.9
2008-07-18 08:59:27 51°18.463 2°53.87 338.7 2.1 327 11
2008-07-18 08:59:32 51°18.466 2°53.867 337.7 2 325 11
2008-07-18 08:59:37 51°18.468 2°53.865 337.2 2 326 11
2008-07-18 08:59:42 51°18.47 2°53.862 336.7 2 324 11
2008-07-18 08:59:47 51°18.472 2°53.86 336.4 2 328 11.1
2008-07-18 08:59:53 51°18.475 2°53.857 336.9 2 328 11.1
2008-07-18 08:59:57 51°18.477 2°53.855 337.6 2 330 10.9
2008-07-18 09:00:02 51°18.479 2°53.853 338.9 2 329 11.1
2008-07-18 09:00:07 51°18.481 2°53.852 339.7 2 330 11
2008-07-18 09:00:12 51°18.483 2°53.85 340.5 2 330 11.1
2008-07-18 09:00:17 51°18.486 2°53.847 340.9 2 331 11.1
2008-07-18 09:00:22 51°18.488 2°53.845 340.6 2 330 11.1
2008-07-18 09:00:27 51°18.491 2°53.843 340.5 2 331 11.2
2008-07-18 09:00:33 51°18.494 2°53.84 340.3 2 330 11.2
2008-07-18 09:00:37 51°18.496 2°53.838 339.8 2 328 11.3
2008-07-18 09:00:42 51°18.498 2°53.836 339.4 2 330 11.2
2008-07-18 09:00:47 51°18.501 2°53.833 338.9 2 328 11.2
2008-07-18 09:00:52 51°18.503 2°53.831 338.6 2.1 330 11.2
2008-07-18 09:00:57 51°18.505 2°53.828 338.7 2.1 326 11.3
2008-07-18 09:01:02 51°18.508 2°53.826 338.8 2 329 11.1
2008-07-18 09:01:07 51°18.51 2°53.823 338.8 2 326 11.1
2008-07-18 09:01:12 51°18.513 2°53.821 339.1 2 328 11
2008-07-18 09:01:17 51°18.515 2°53.819 339.4 2 326 11.1
2008-07-18 09:01:22 51°18.517 2°53.817 339.6 2 329 11.1
2008-07-18 09:01:27 51°18.519 2°53.814 340.2 2 327 11.2
2008-07-18 09:01:32 51°18.522 2°53.812 340.5 2 330 11.2
2008-07-18 09:01:37 51°18.524 2°53.81 340.5 2 331 11
2008-07-18 09:01:42 51°18.527 2°53.808 340.7 2 331 11
2008-07-18 09:01:47 51°18.529 2°53.806 340.7 2 330 11
2008-07-18 09:01:53 51°18.532 2°53.803 340.5 2 331 11.1
2008-07-18 09:01:57 51°18.534 2°53.801 340.3 2 331 11.1
2008-07-18 09:02:02 51°18.537 2°53.799 340.4 2 332 11.2
2008-07-18 09:02:07 51°18.539 2°53.797 340.6 2 331 11.2
2008-07-18 09:02:12 51°18.542 2°53.795 341.1 2.1 331 11.2
2008-07-18 09:02:17 51°18.544 2°53.792 341.4 2.1 329 11.2
2008-07-18 09:02:22 51°18.547 2°53.79 341.8 2 332 11.1
2008-07-18 09:02:27 51°18.549 2°53.788 341.4 2.1 330 11.2
2008-07-18 09:02:32 51°18.552 2°53.786 340.9 2.1 329 11.2
2008-07-18 09:02:37 51°18.554 2°53.783 340.7 2.1 329 11.1
2008-07-18 09:02:42 51°18.557 2°53.781 340.4 2 330 11.2
2008-07-18 09:02:47 51°18.559 2°53.778 340.3 2.1 329 11.2
2008-07-18 09:02:53 51°18.562 2°53.776 340.3 2.1 332 11.2
2008-07-18 09:02:57 51°18.564 2°53.774 340.5 2 331 11.2
2008-07-18 09:03:02 51°18.566 2°53.772 341 2.1 329 11.1
2008-07-18 09:03:07 51°18.569 2°53.77 341 2.1 331 11.2
2008-07-18 09:03:12 51°18.571 2°53.768 341.3 2.1 330 11.2
2008-07-18 09:03:17 51°18.574 2°53.765 341 2.1 329 11.3
2008-07-18 09:03:22 51°18.576 2°53.763 340.5 2.1 329 11.2
2008-07-18 09:03:27 51°18.579 2°53.76 339.8 2.1 327 11.2
2008-07-18 09:03:32 51°18.581 2°53.758 339 2.1 327 11.2
2008-07-18 09:03:37 51°18.584 2°53.755 338.3 2 327 11.2
2008-07-18 09:03:42 51°18.586 2°53.753 338 2 329 11.2
2008-07-18 09:03:47 51°18.588 2°53.751 338 2.1 326 11.3
2008-07-18 09:03:52 51°18.591 2°53.748 338.4 2.1 330 11.3
2008-07-18 09:03:57 51°18.593 2°53.746 339.5 1.9 329 11.2
2008-07-18 09:04:02 51°18.596 2°53.744 340.6 1.9 334 11.3
2008-07-18 09:04:07 51°18.598 2°53.742 341.4 2 331 11.3
2008-07-18 09:04:12 51°18.601 2°53.74 343.7 2 339 11.3
2008-07-18 09:04:17 51°18.603 2°53.739 346.8 2.1 341 11.3
2008-07-18 09:04:22 51°18.606 2°53.737 350.2 2.1 345 11.3
2008-07-18 09:04:27 51°18.609 2°53.737 354.1 2.2 350 11.3
2008-07-18 09:04:32 51°18.612 2°53.736 358.6 2.3 359 11.4
2008-07-18 09:04:37 51°18.615 2°53.737 3.5 2.4 3 11.4
2008-07-18 09:04:42 51°18.619 2°53.737 9.1 2.4 11 11.3
2008-07-18 09:04:47 51°18.622 2°53.739 15 2.4 17 11.3
2008-07-18 09:04:53 51°18.626 2°53.742 20.4 2.5 25 11.3
2008-07-18 09:04:57 51°18.628 2°53.744 26.3 2.5 33 11.4
2008-07-18 09:05:02 51°18.631 2°53.747 32.2 2.6 39 11.4
2008-07-18 09:05:07 51°18.633 2°53.751 38.1 2.5 46 11.4
2008-07-18 09:05:12 51°18.635 2°53.756 43.6 2.4 56 11.4
2008-07-18 09:05:17 51°18.637 2°53.76 48.1 2.1 58 11.4
2008-07-18 09:05:22 51°18.638 2°53.763 51 1.9 64 11.2
2008-07-18 09:05:27 51°18.639 2°53.767 53.4 1.7 69 11.3
2008-07-18 09:05:32 51°18.64 2°53.77 55 1.4 68 11.3
2008-07-18 09:05:37 51°18.64 2°53.773 56.5 1.2 74 11.4
2008-07-18 09:05:42 51°18.64 2°53.775 58 1.1 81 11.4
2008-07-18 09:05:47 51°18.64 2°53.778 59.5 1 84 11.3
2008-07-18 09:05:52 51°18.64 2°53.78 61.6 0.9 92 11.4
2008-07-18 09:05:57 51°18.64 2°53.782 63.7 0.8 101 11.4
2008-07-18 09:06:02 51°18.64 2°53.783 65.9 0.6 105 11.4
2008-07-18 09:06:07 51°18.639 2°53.784 68.1 0.7 122 11.4
2008-07-18 09:06:12 51°18.639 2°53.786 70 0.5 126 11.4
2008-07-18 09:06:17 51°18.638 2°53.786 71.3 0.6 136 11.4
2008-07-18 09:06:22 51°18.638 2°53.787 72.7 0.6 132 11.4
2008-07-18 09:06:27 51°18.637 2°53.788 73.9 0.6 136 11.4
2008-07-18 09:06:32 51°18.637 2°53.789 75.1 0.6 139 11.4
2008-07-18 09:06:37 51°18.636 2°53.79 76.1 0.6 147 11.4
2008-07-18 09:06:42 51°18.635 2°53.79 77.1 0.5 159 11.3
2008-07-18 09:06:47 51°18.635 2°53.79 78.2 0.5 173 11.4
2008-07-18 09:06:53 51°18.634 2°53.79 78.7 0.6 185 11.4
2008-07-18 09:06:57 51°18.633 2°53.79 79 0.6 195 11.4
2008-07-18 09:07:02 51°18.632 2°53.789 79.5 0.6 200 11.4
2008-07-18 09:07:07 51°18.631 2°53.789 79.3 0.6 195 11.4
2008-07-18 09:07:12 51°18.631 2°53.789 79.4 0.6 191 11.4
2008-07-18 09:07:17 51°18.63 2°53.789 79.3 0.6 192 11.3
2008-07-18 09:07:22 51°18.629 2°53.788 79.3 0.7 206 11.4
2008-07-18 09:07:27 51°18.628 2°53.787 79 0.9 220 11.4
2008-07-18 09:07:32 51°18.627 2°53.785 78.6 1.1 229 11.4
2008-07-18 09:07:37 51°18.626 2°53.783 77.9 1.3 236 11.3
2008-07-18 09:07:42 51°18.625 2°53.78 77.2 1.4 234 11.4
2008-07-18 09:07:47 51°18.624 2°53.778 76.4 1.3 236 11.4
2008-07-18 09:07:52 51°18.623 2°53.776 75.7 1.2 232 11.4
2008-07-18 09:07:57 51°18.622 2°53.774 75.3 1.2 230 5.1
2008-07-18 09:08:03 51°18.621 2°53.772 74.7 1.1 226 -999
2008-07-18 09:08:09 51°18.619 2°53.769 74.3 1.1 223 -999
2008-07-18 09:08:14 51°18.618 2°53.768 74 0.9 226 -999
2008-07-18 09:08:20 51°18.617 2°53.766 73.9 1 214 -999
2008-07-18 09:08:26 51°18.616 2°53.765 73.9 0.9 216 4.9
2008-07-18 09:08:31 51°18.615 2°53.764 74.1 0.8 214 -999
2008-07-18 09:08:36 51°18.614 2°53.763 74.2 0.8 210 -999
2008-07-18 09:08:41 51°18.613 2°53.762 74.6 0.7 213 4.6
2008-07-18 09:08:45 51°18.612 2°53.762 74.8 0.7 204 4.8
2008-07-18 09:08:50 51°18.612 2°53.762 75 0.5 199 4.8
2008-07-18 09:08:56 51°18.611 2°53.762 75 0.4 184 4.7
2008-07-18 09:09:00 51°18.611 2°53.762 74.7 0.2 178 4.6
2008-07-18 09:09:05 51°18.61 2°53.762 73.9 0.3 153 11.4
2008-07-18 09:09:10 51°18.61 2°53.762 72.5 0.3 110 4.6
2008-07-18 09:09:15 51°18.61 2°53.763 71 0.5 114 4.7
2008-07-18 09:09:20 51°18.61 2°53.764 69.3 0.4 101 7.9
2008-07-18 09:09:25 51°18.609 2°53.765 67.5 0.5 106 11.4
2008-07-18 09:09:30 51°18.609 2°53.766 66.5 0.5 104 11.4
2008-07-18 09:09:35 51°18.609 2°53.768 65.5 0.5 98 11.1
2008-07-18 09:09:40 51°18.609 2°53.769 64.5 0.6 98 11.3
2008-07-18 09:09:45 51°18.609 2°53.77 63.8 0.6 100 11.4
2008-07-18 09:09:49 51°18.609 2°53.771 63.3 0.6 101 11.3
2008-07-18 09:09:54 51°18.609 2°53.773 62.8 0.7 100 11.2
2008-07-18 09:10:00 51°18.608 2°53.774 62.3 0.6 98 11.3
2008-07-18 09:10:05 51°18.608 2°53.776 61.7 0.6 93 11.3
2008-07-18 09:10:09 51°18.608 2°53.777 61.3 0.6 90 11.3
2008-07-18 09:10:14 51°18.608 2°53.778 60.5 0.7 99 11.3
2008-07-18 09:10:19 51°18.608 2°53.78 60.1 0.6 86 11.4
2008-07-18 09:10:24 51°18.608 2°53.781 59.2 0.6 92 11.4
2008-07-18 09:10:29 51°18.608 2°53.783 58.4 0.6 95 11.4
2008-07-18 09:10:34 51°18.608 2°53.784 57.5 0.6 86 11.4
2008-07-18 09:10:39 51°18.608 2°53.786 56.9 0.6 85 11.3
2008-07-18 09:10:44 51°18.608 2°53.787 55.8 0.6 88 11.4
2008-07-18 09:10:49 51°18.609 2°53.788 54.4 0.6 82 11.4
2008-07-18 09:10:53 51°18.609 2°53.789 53.2 0.6 79 11.4
2008-07-18 09:10:58 51°18.609 2°53.79 51.8 0.6 76 11.5
2008-07-18 09:11:03 51°18.609 2°53.791 50.7 0.6 74 11.4
2008-07-18 09:11:08 51°18.609 2°53.793 48.9 0.6 76 11.3
2008-07-18 09:11:13 51°18.609 2°53.794 47.3 0.5 65 11.4
2008-07-18 09:11:18 51°18.61 2°53.795 46.1 0.5 74 11.4
2008-07-18 09:11:23 51°18.61 2°53.796 43.8 0.5 66 11.4
2008-07-18 09:11:28 51°18.61 2°53.797 42.3 0.5 74 11.4
2008-07-18 09:11:33 51°18.61 2°53.798 40.4 0.5 63 11.4
2008-07-18 09:11:38 51°18.611 2°53.799 38.5 0.4 71 11.3
2008-07-18 09:11:43 51°18.611 2°53.8 37.1 0.4 60 11.3
2008-07-18 09:11:47 51°18.611 2°53.8 36 0.4 73 11.3
2008-07-18 09:11:53 51°18.611 2°53.801 34 0.3 70 11.4
2008-07-18 09:11:57 51°18.611 2°53.802 32.5 0.3 68 11.5
2008-07-18 09:12:02 51°18.611 2°53.802 30.9 0.3 59 11.5
2008-07-18 09:12:07 51°18.611 2°53.803 29.6 0.3 58 11.5
2008-07-18 09:12:13 51°18.612 2°53.804 27.3 0.2 62 11.3
2008-07-18 09:12:17 51°18.612 2°53.804 25.5 0.1 74 11.2
2008-07-18 09:12:22 51°18.612 2°53.804 23.4 0.1 76 11.3
2008-07-18 09:12:27 51°18.612 2°53.805 22.2 0.2 70 11.4
2008-07-18 09:12:32 51°18.612 2°53.805 19.8 0.1 61 11.4
2008-07-18 09:12:37 51°18.612 2°53.805 18.1 0.2 36 11.5
2008-07-18 09:12:42 51°18.612 2°53.805 16.5 0.1 55 11.3
2008-07-18 09:12:47 51°18.612 2°53.806 15.1 0.2 91 11.2
2008-07-18 09:12:52 51°18.612 2°53.806 13.7 0.2 109 11.2
2008-07-18 09:12:57 51°18.611 2°53.807 12.8 0.2 116 11.2
2008-07-18 09:13:02 51°18.611 2°53.807 11.6 0.2 130 11.3
2008-07-18 09:13:07 51°18.611 2°53.807 10.8 0.1 157 11.3
2008-07-18 09:13:12 51°18.611 2°53.808 9.9 0.1 140 11.3
2008-07-18 09:13:17 51°18.611 2°53.808 9.4 0.2 138 11.5
2008-07-18 09:13:22 51°18.611 2°53.808 7.9 0.2 169 11.6
2008-07-18 09:13:27 51°18.61 2°53.808 7 0.1 164 11.5
2008-07-18 09:13:32 51°18.61 2°53.808 5.1 0.2 181 11.4
2008-07-18 09:13:37 51°18.61 2°53.808 3.7 0.2 177 11.4
2008-07-18 09:13:42 51°18.609 2°53.808 2.2 0.2 195 11.5
2008-07-18 09:13:47 51°18.609 2°53.808 0.9 0.2 186 11.5
2008-07-18 09:13:53 51°18.609 2°53.808 359.4 0.2 189 11.5
2008-07-18 09:13:57 51°18.608 2°53.808 358 0.2 194 11.5
2008-07-18 09:14:02 51°18.608 2°53.808 355.8 0.2 193 11.5
2008-07-18 09:14:07 51°18.608 2°53.808 354.8 0.2 197 11.5
2008-07-18 09:14:12 51°18.608 2°53.807 353.3 0.2 188 11.4
2008-07-18 09:14:17 51°18.607 2°53.808 352 0.3 161 11.3
2008-07-18 09:14:22 51°18.607 2°53.808 351.1 0.2 180 11.3
2008-07-18 09:14:27 51°18.606 2°53.808 350.2 0.2 165 11.4
2008-07-18 09:14:32 51°18.606 2°53.808 348.7 0.3 186 11.3
2008-07-18 09:14:37 51°18.606 2°53.808 347.3 0.3 182 11.4
2008-07-18 09:14:42 51°18.605 2°53.808 346.1 0.2 179 11.4
2008-07-18 09:14:47 51°18.605 2°53.808 345.2 0.3 176 11.4
2008-07-18 09:14:52 51°18.604 2°53.808 344 0.3 175 11.5
2008-07-18 09:14:57 51°18.604 2°53.808 342.8 0.2 190 11.5
2008-07-18 09:15:02 51°18.604 2°53.808 341.5 0.3 157 11.2
2008-07-18 09:15:07 51°18.603 2°53.808 341 0.3 168 11.3
2008-07-18 09:15:12 51°18.603 2°53.808 340.3 0.3 186 11.4
2008-07-18 09:15:17 51°18.603 2°53.808 339.6 0.3 171 11.3
2008-07-18 09:15:22 51°18.602 2°53.808 338.1 0.3 190 11.5
2008-07-18 09:15:27 51°18.602 2°53.808 337.3 0.2 195 11.5
2008-07-18 09:15:32 51°18.601 2°53.808 336.1 0.2 200 11.5
2008-07-18 09:15:37 51°18.601 2°53.808 335.3 0.2 189 11.4
2008-07-18 09:15:42 51°18.601 2°53.808 334.5 0.2 197 11.5
2008-07-18 09:15:47 51°18.6 2°53.808 333.6 0.2 199 11.4
2008-07-18 09:15:53 51°18.6 2°53.808 332.5 0.2 201 11.5
2008-07-18 09:15:57 51°18.6 2°53.808 331.7 0.1 231 11.5
2008-07-18 09:16:02 51°18.6 2°53.808 330.9 0.1 236 11.3
2008-07-18 09:16:07 51°18.6 2°53.808 330.8 -999 267 11.3
2008-07-18 09:16:12 51°18.6 2°53.807 330.5 0.1 270 11.4
2008-07-18 09:16:17 51°18.6 2°53.807 330.2 0.1 282 11.5
2008-07-18 09:16:22 51°18.6 2°53.807 329.8 0.2 272 11.5
2008-07-18 09:16:27 51°18.6 2°53.806 329.6 0.1 297 11.4
2008-07-18 09:16:32 51°18.6 2°53.806 329.3 0.2 269 11.4
2008-07-18 09:16:37 51°18.6 2°53.806 329.1 0.2 295 11.5
2008-07-18 09:16:42 51°18.6 2°53.805 328.7 0.2 280 11.5
2008-07-18 09:16:47 51°18.6 2°53.805 328.4 0.2 305 11.3
2008-07-18 09:16:52 51°18.6 2°53.805 328.1 0.1 317 11.2
2008-07-18 09:16:57 51°18.6 2°53.804 328.4 0.2 304 11.3
2008-07-18 09:17:02 51°18.6 2°53.804 328.2 0.2 315 11.4
2008-07-18 09:17:07 51°18.601 2°53.803 327.9 0.3 293 11.5
2008-07-18 09:17:12 51°18.601 2°53.803 327.9 0.2 297 11.4
2008-07-18 09:17:17 51°18.601 2°53.802 327.9 0.3 292 11.4
2008-07-18 09:17:22 51°18.601 2°53.802 327 0.2 305 11.4
2008-07-18 09:17:27 51°18.601 2°53.802 326.8 0.3 298 11.6
2008-07-18 09:17:32 51°18.601 2°53.801 326.5 0.3 289 11.6
2008-07-18 09:17:37 51°18.601 2°53.801 326.3 0.2 294 11.4
2008-07-18 09:17:42 51°18.601 2°53.801 326.2 0.2 280 11.3
2008-07-18 09:17:47 51°18.601 2°53.801 326.5 0.1 294 11.4
2008-07-18 09:17:53 51°18.601 2°53.8 326.1 0.2 270 11.4
2008-07-18 09:17:57 51°18.601 2°53.8 326.1 0.1 293 11.6
2008-07-18 09:18:02 51°18.601 2°53.799 326.3 0.2 268 11.5
2008-07-18 09:18:07 51°18.601 2°53.799 326.4 0.1 288 11.5
2008-07-18 09:18:12 51°18.601 2°53.799 325.9 0.1 277 11.5
2008-07-18 09:18:17 51°18.601 2°53.799 325.8 0.1 338 11.5
2008-07-18 09:18:22 51°18.601 2°53.799 325.6 0.1 293 11.5
2008-07-18 09:18:27 51°18.601 2°53.798 325.4 0.1 293 11.5
2008-07-18 09:18:33 51°18.601 2°53.798 325.7 0.2 263 11.5
2008-07-18 09:18:37 51°18.601 2°53.798 325.7 0.1 290 11.4
2008-07-18 09:18:42 51°18.601 2°53.798 325.4 0.1 258 11.4
2008-07-18 09:18:47 51°18.601 2°53.797 325.6 0.1 267 11.5
2008-07-18 09:18:52 51°18.601 2°53.797 325.5 0.2 271 11.5
2008-07-18 09:18:57 51°18.601 2°53.797 325.2 0.2 267 11.4
2008-07-18 09:19:02 51°18.601 2°53.796 325.1 0.2 274 11.5
2008-07-18 09:19:07 51°18.601 2°53.796 325 0.1 279 11.6
2008-07-18 09:19:12 51°18.601 2°53.796 324.6 0.1 279 11.4
2008-07-18 09:19:17 51°18.601 2°53.796 325 0.1 284 11.4
2008-07-18 09:19:22 51°18.601 2°53.796 325.1 -999 9 11.4
2008-07-18 09:19:27 51°18.601 2°53.796 325.8 0.1 59 11.5
2008-07-18 09:19:32 51°18.601 2°53.796 326.3 -999 37 11.5
2008-07-18 09:19:37 51°18.601 2°53.796 327.2 -999 132 11.3
2008-07-18 09:19:42 51°18.601 2°53.796 328.4 -999 57 11.2
2008-07-18 09:19:47 51°18.601 2°53.796 329.1 0.1 147 11.2
2008-07-18 09:19:53 51°18.601 2°53.796 329.4 0.1 133 11.4
2008-07-18 09:19:57 51°18.601 2°53.796 329.6 -999 305 11.5
2008-07-18 09:20:02 51°18.601 2°53.796 329.4 -999 355 11.6
2008-07-18 09:20:07 51°18.601 2°53.797 329.6 -999 323 11.6
2008-07-18 09:20:12 51°18.601 2°53.796 329.6 0.1 193 11.5
2008-07-18 09:20:17 51°18.601 2°53.796 329.5 -999 279 11.5
2008-07-18 09:20:22 51°18.601 2°53.796 328.9 0.1 257 11.6
2008-07-18 09:20:27 51°18.601 2°53.796 328.7 -999 320 11.6
2008-07-18 09:20:33 51°18.601 2°53.796 328.6 0.1 285 11.6
2008-07-18 09:20:37 51°18.601 2°53.796 328.5 -999 309 11.6
2008-07-18 09:20:42 51°18.601 2°53.796 328.8 0.1 277 11.6
2008-07-18 09:20:47 51°18.601 2°53.796 328.6 -999 305 11.6
2008-07-18 09:20:53 51°18.601 2°53.796 328.7 -999 178 11.5
2008-07-18 09:20:57 51°18.601 2°53.796 328.9 -999 186 11.5
2008-07-18 09:21:02 51°18.601 2°53.796 328.9 0.1 230 11.5
2008-07-18 09:21:07 51°18.601 2°53.795 328.9 0.1 246 11.5
2008-07-18 09:21:12 51°18.601 2°53.795 329 -999 171 11.4
2008-07-18 09:21:17 51°18.601 2°53.795 329.1 -999 144 11.5
2008-07-18 09:21:22 51°18.601 2°53.795 329.3 -999 6 11.6
2008-07-18 09:21:27 51°18.601 2°53.795 329.2 0.1 313 11.4
2008-07-18 09:21:32 51°18.601 2°53.795 329.8 -999 18 11.3
2008-07-18 09:21:37 51°18.601 2°53.795 331 -999 62 11.3
2008-07-18 09:21:42 51°18.601 2°53.795 331.6 -999 5 11.3
2008-07-18 09:21:47 51°18.601 2°53.795 332.2 -999 330 11.5
2008-07-18 09:21:53 51°18.601 2°53.795 332.5 0.1 6 11.6
2008-07-18 09:21:57 51°18.601 2°53.795 332.7 0.1 255 11.6
2008-07-18 09:22:02 51°18.601 2°53.795 332.8 -999 215 11.5
2008-07-18 09:22:07 51°18.601 2°53.795 332.7 0.1 259 11.6
2008-07-18 09:22:12 51°18.601 2°53.795 332.4 -999 286 11.6
2008-07-18 09:22:17 51°18.601 2°53.795 332.2 0.1 222 11.5
2008-07-18 09:22:22 51°18.601 2°53.795 332.6 -999 82 11.5
2008-07-18 09:22:27 51°18.6 2°53.795 332.7 0.1 277 11.6
2008-07-18 09:22:33 51°18.6 2°53.795 332.7 -999 328 11.6
2008-07-18 09:22:37 51°18.6 2°53.794 332.7 0.1 257 11.5
2008-07-18 09:22:42 51°18.601 2°53.795 332.5 0.1 83 11.5
2008-07-18 09:22:47 51°18.6 2°53.795 332.3 -999 236 11.5
2008-07-18 09:22:53 51°18.6 2°53.794 332 0.1 276 11.6
2008-07-18 09:22:57 51°18.6 2°53.794 331.1 0.1 317 11.6
2008-07-18 09:23:02 51°18.601 2°53.794 330.8 0.1 292 11.6
2008-07-18 09:23:07 51°18.6 2°53.794 330.7 0.1 243 11.6
2008-07-18 09:23:13 51°18.6 2°53.793 330.5 0.1 275 11.6
2008-07-18 09:23:17 51°18.601 2°53.793 330.3 0.1 16 11.6
2008-07-18 09:23:22 51°18.601 2°53.793 330 0.1 288 11.6
2008-07-18 09:23:27 51°18.601 2°53.793 330.1 -999 -999 11.6
2008-07-18 09:23:33 51°18.601 2°53.793 330.2 -999 301 11.6